createdAt,value
2017-08-17T00:02:06.216Z,5.27
2017-08-17T00:04:34.131Z,5.33
2017-08-17T00:07:03.032Z,5.43
2017-08-17T00:09:30.011Z,6.70
2017-08-17T00:11:56.933Z,4.70
2017-08-17T00:14:23.885Z,5.30
2017-08-17T00:16:50.799Z,5.80
2017-08-17T00:19:18.680Z,4.27
2017-08-17T00:21:46.542Z,5.37
2017-08-17T00:24:13.482Z,4.90
2017-08-17T00:26:40.398Z,4.93
2017-08-17T00:29:07.353Z,4.70
2017-08-17T00:31:35.090Z,4.90
2017-08-17T00:34:02.019Z,5.20
2017-08-17T00:36:28.955Z,4.70
2017-08-17T00:38:55.876Z,5.80
2017-08-17T00:41:22.810Z,4.53
2017-08-17T00:43:49.734Z,4.80
2017-08-17T00:46:16.667Z,4.20
2017-08-17T00:48:43.598Z,4.80
2017-08-17T00:51:10.553Z,5.27
2017-08-17T00:53:37.480Z,4.73
2017-08-17T00:56:04.430Z,4.67
2017-08-17T00:58:31.369Z,5.03
2017-08-17T01:00:58.316Z,3.80
2017-08-17T01:03:25.244Z,4.67
2017-08-17T01:05:53.194Z,5.10
2017-08-17T01:08:20.122Z,5.27
2017-08-17T01:10:47.047Z,4.67
2017-08-17T01:13:14.760Z,4.60
2017-08-17T01:15:41.698Z,4.57
2017-08-17T01:18:08.630Z,4.13
2017-08-17T01:20:35.580Z,4.37
2017-08-17T01:23:02.500Z,4.73
2017-08-17T01:25:30.229Z,4.70
2017-08-17T01:27:58.188Z,3.93
2017-08-17T01:30:25.110Z,4.57
2017-08-17T01:32:52.048Z,5.27
2017-08-17T01:35:19.886Z,4.20
2017-08-17T01:37:48.600Z,4.83
2017-08-17T01:40:15.514Z,4.40
2017-08-17T01:42:43.242Z,4.87
2017-08-17T01:45:11.148Z,4.90
2017-08-17T01:47:38.088Z,3.80
2017-08-17T01:50:05.770Z,3.67
2017-08-17T01:52:32.740Z,4.53
2017-08-17T01:54:59.666Z,4.93
2017-08-17T01:57:26.583Z,4.37
2017-08-17T01:59:53.525Z,4.87
2017-08-17T02:02:20.451Z,4.13
2017-08-17T02:04:48.304Z,4.13
2017-08-17T02:07:15.219Z,4.07
2017-08-17T02:09:42.180Z,4.30
2017-08-17T02:12:09.093Z,4.97
2017-08-17T02:14:36.014Z,4.40
2017-08-17T02:17:04.748Z,5.00
2017-08-17T02:19:33.599Z,4.40
2017-08-17T02:22:00.546Z,4.73
2017-08-17T02:24:27.475Z,4.57
2017-08-17T02:26:55.190Z,3.63
2017-08-17T02:29:22.126Z,4.60
2017-08-17T02:31:49.574Z,4.50
2017-08-17T02:34:16.534Z,3.80
2017-08-17T02:36:44.471Z,4.60
2017-08-17T02:39:11.414Z,3.80
2017-08-17T02:41:38.331Z,4.93
2017-08-17T02:44:06.055Z,4.77
2017-08-17T02:46:32.983Z,5.93
2017-08-17T02:49:00.866Z,5.33
2017-08-17T02:51:27.787Z,5.63
2017-08-17T02:53:54.755Z,5.60
2017-08-17T02:56:21.690Z,4.90
2017-08-17T02:58:48.623Z,4.83
2017-08-17T03:01:15.550Z,4.30
2017-08-17T03:03:42.501Z,4.60
2017-08-17T03:06:10.363Z,5.33
2017-08-17T03:08:37.319Z,5.00
2017-08-17T03:11:04.245Z,4.17
2017-08-17T03:13:31.207Z,5.10
2017-08-17T03:15:58.133Z,5.67
2017-08-17T03:18:25.050Z,5.37
2017-08-17T03:20:51.995Z,5.00
2017-08-17T03:23:18.942Z,5.00
2017-08-17T03:25:45.868Z,6.10
2017-08-17T03:28:12.808Z,5.33
2017-08-17T03:30:39.753Z,4.30
2017-08-17T03:33:06.666Z,5.97
2017-08-17T03:35:33.608Z,5.33
2017-08-17T03:38:00.536Z,5.67
2017-08-17T03:40:27.473Z,5.30
2017-08-17T03:42:55.152Z,4.90
2017-08-17T03:45:22.427Z,5.10
2017-08-17T03:47:49.350Z,5.50
2017-08-17T03:50:16.278Z,5.43
2017-08-17T03:52:43.966Z,5.20
2017-08-17T03:55:10.912Z,4.80
2017-08-17T03:57:38.769Z,5.23
2017-08-17T04:00:05.718Z,4.63
2017-08-17T04:02:32.642Z,4.60
2017-08-17T04:05:01.310Z,4.80
2017-08-17T04:07:29.027Z,4.47
2017-08-17T04:09:55.967Z,4.67
2017-08-17T04:12:22.881Z,4.17
2017-08-17T04:14:50.624Z,4.43
2017-08-17T04:17:17.554Z,4.53
2017-08-17T04:19:44.590Z,4.33
2017-08-17T04:22:12.091Z,4.43
2017-08-17T04:24:39.036Z,4.70
2017-08-17T04:27:06.021Z,3.77
2017-08-17T04:29:36.680Z,4.40
2017-08-17T04:32:03.623Z,5.00
2017-08-17T04:34:30.542Z,4.10
2017-08-17T04:36:58.434Z,4.80
2017-08-17T04:39:25.364Z,4.60
2017-08-17T04:41:52.311Z,5.10
2017-08-17T04:44:19.237Z,4.60
2017-08-17T04:46:46.206Z,5.63
2017-08-17T04:49:13.141Z,5.43
2017-08-17T04:51:40.087Z,5.00
2017-08-17T04:54:07.006Z,5.87
2017-08-17T04:56:46.602Z,5.20
2017-08-17T04:59:13.525Z,4.97
2017-08-17T05:01:40.465Z,5.73
2017-08-17T05:04:07.406Z,5.83
2017-08-17T05:06:34.343Z,4.70
2017-08-17T05:09:01.362Z,5.73
2017-08-17T05:11:29.055Z,5.63
2017-08-17T05:13:56.018Z,5.40
2017-08-17T05:16:22.946Z,5.53
2017-08-17T05:18:49.894Z,6.10
2017-08-17T05:21:16.818Z,5.67
2017-08-17T05:23:43.750Z,6.10
2017-08-17T05:26:11.455Z,5.77
2017-08-17T05:28:38.414Z,5.70
2017-08-17T05:31:05.338Z,5.70
2017-08-17T05:33:32.280Z,6.73
2017-08-17T05:35:59.199Z,5.70
2017-08-17T05:38:26.138Z,5.60
2017-08-17T05:40:53.069Z,5.17
2017-08-17T05:43:19.998Z,6.03
2017-08-17T05:45:46.928Z,6.00
2017-08-17T05:48:13.874Z,5.90
2017-08-17T05:50:40.807Z,4.77
2017-08-17T05:53:07.803Z,6.80
2017-08-17T05:55:34.762Z,5.50
2017-08-17T05:58:02.989Z,4.90
2017-08-17T06:00:29.927Z,5.87
2017-08-17T06:02:56.855Z,5.77
2017-08-17T06:05:23.797Z,5.43
2017-08-17T06:07:51.754Z,5.37
2017-08-17T06:10:18.711Z,5.73
2017-08-17T06:12:45.646Z,6.43
2017-08-17T06:15:13.512Z,5.70
2017-08-17T06:17:40.449Z,6.70
2017-08-17T06:20:07.395Z,6.43
2017-08-17T06:22:35.256Z,6.50
2017-08-17T06:25:03.154Z,6.47
2017-08-17T06:27:30.117Z,7.40
2017-08-17T06:29:59.046Z,7.03
2017-08-17T06:32:26.750Z,7.93
2017-08-17T06:34:53.694Z,7.33
2017-08-17T06:37:20.635Z,6.83
2017-08-17T06:39:47.578Z,8.53
2017-08-17T06:42:14.501Z,7.13
2017-08-17T06:44:41.442Z,8.20
2017-08-17T06:47:08.378Z,9.37
2017-08-17T06:49:35.316Z,9.10
2017-08-17T06:52:02.235Z,7.93
2017-08-17T06:54:29.188Z,8.30
2017-08-17T06:56:59.921Z,8.47
2017-08-17T06:59:26.863Z,10.43
2017-08-17T07:01:54.773Z,8.87
2017-08-17T07:04:21.775Z,8.93
2017-08-17T07:06:48.695Z,11.17
2017-08-17T07:09:15.685Z,10.40
2017-08-17T07:11:43.399Z,10.50
2017-08-17T07:14:10.326Z,10.50
2017-08-17T07:16:39.216Z,14.87
2017-08-17T07:19:06.153Z,9.63
2017-08-17T07:21:34.030Z,13.63
2017-08-17T07:24:00.954Z,14.97
2017-08-17T07:26:27.886Z,13.67
2017-08-17T07:28:55.582Z,13.57
2017-08-17T07:31:24.470Z,12.73
2017-08-17T07:33:52.422Z,12.77
2017-08-17T07:36:19.354Z,13.03
2017-08-17T07:38:46.304Z,13.30
2017-08-17T07:41:14.202Z,14.70
2017-08-17T07:43:41.139Z,14.70
2017-08-17T07:46:09.111Z,14.67
2017-08-17T07:48:37.936Z,13.77
2017-08-17T07:51:04.879Z,15.47
2017-08-17T07:53:31.808Z,15.83
2017-08-17T07:55:58.752Z,14.33
2017-08-17T07:58:27.728Z,13.60
2017-08-17T08:00:55.731Z,13.30
2017-08-17T08:03:24.885Z,14.30
2017-08-17T08:05:52.756Z,14.10
2017-08-17T08:08:19.702Z,15.00
2017-08-17T08:10:47.670Z,15.57
2017-08-17T08:13:14.603Z,15.40
2017-08-17T08:15:41.562Z,15.47
2017-08-17T08:18:09.516Z,15.33
2017-08-17T08:20:36.596Z,14.13
2017-08-17T08:23:04.437Z,15.00
2017-08-17T08:25:31.382Z,14.37
2017-08-17T08:27:59.335Z,14.90
2017-08-17T08:30:26.302Z,14.67
2017-08-17T08:32:53.253Z,14.30
2017-08-17T08:35:20.218Z,14.50
2017-08-17T08:37:48.132Z,13.80
2017-08-17T08:40:15.051Z,13.73
2017-08-17T08:42:42.763Z,15.30
2017-08-17T08:45:09.699Z,16.60
2017-08-17T08:47:36.648Z,15.60
2017-08-17T08:50:03.574Z,15.80
2017-08-17T08:52:30.516Z,15.13
2017-08-17T08:54:57.450Z,15.10
2017-08-17T08:57:26.195Z,17.03
2017-08-17T08:59:53.137Z,15.37
2017-08-17T09:02:21.994Z,15.13
2017-08-17T09:04:48.915Z,14.50
2017-08-17T09:07:15.858Z,15.00
2017-08-17T09:09:42.787Z,14.00
2017-08-17T09:12:10.701Z,15.50
2017-08-17T09:14:37.623Z,14.17
2017-08-17T09:17:04.568Z,15.77
2017-08-17T09:19:31.493Z,17.37
2017-08-17T09:21:58.453Z,14.80
2017-08-17T09:24:27.371Z,16.20
2017-08-17T09:26:54.315Z,15.43
2017-08-17T09:29:21.243Z,16.33
2017-08-17T09:31:48.182Z,15.20
2017-08-17T09:34:15.143Z,13.60
2017-08-17T09:36:42.117Z,14.93
2017-08-17T09:39:09.050Z,14.00
2017-08-17T09:41:37.036Z,13.90
2017-08-17T09:44:03.982Z,13.80
2017-08-17T09:46:31.851Z,13.40
2017-08-17T09:48:58.795Z,14.40
2017-08-17T09:51:26.711Z,14.23
2017-08-17T09:53:53.658Z,14.67
2017-08-17T09:56:20.582Z,14.23
2017-08-17T09:58:47.535Z,14.97
2017-08-17T10:01:16.383Z,13.73
2017-08-17T10:03:43.331Z,11.97
2017-08-17T10:06:10.251Z,12.90
2017-08-17T10:08:38.113Z,13.33
2017-08-17T10:11:05.046Z,14.03
2017-08-17T10:13:31.993Z,15.17
2017-08-17T10:15:58.922Z,14.47
2017-08-17T10:18:28.916Z,13.87
2017-08-17T10:20:55.855Z,14.23
2017-08-17T10:23:23.566Z,11.90
2017-08-17T10:25:50.510Z,13.20
2017-08-17T10:28:18.450Z,12.70
2017-08-17T10:30:45.416Z,11.70
2017-08-17T10:33:12.343Z,11.40
2017-08-17T10:35:39.268Z,13.20
2017-08-17T10:38:07.988Z,12.10
2017-08-17T10:40:34.954Z,11.70
2017-08-17T10:43:01.894Z,11.20
2017-08-17T10:45:28.859Z,14.13
2017-08-17T10:47:55.803Z,10.43
2017-08-17T10:50:22.738Z,12.17
2017-08-17T10:52:49.698Z,10.97
2017-08-17T10:55:17.607Z,12.47
2017-08-17T10:57:45.477Z,10.87
2017-08-17T11:00:13.359Z,11.47
2017-08-17T11:02:40.563Z,11.70
2017-08-17T11:05:08.273Z,12.03
2017-08-17T11:07:36.210Z,12.63
2017-08-17T11:10:03.919Z,11.80
2017-08-17T11:12:31.868Z,12.50
2017-08-17T11:14:58.826Z,11.93
2017-08-17T11:17:25.778Z,12.57
2017-08-17T11:19:52.715Z,12.40
2017-08-17T11:22:19.659Z,11.93
2017-08-17T11:24:47.619Z,12.10
2017-08-17T11:27:14.543Z,12.67
2017-08-17T11:29:41.488Z,10.77
2017-08-17T11:32:08.414Z,11.33
2017-08-17T11:34:36.131Z,10.43
2017-08-17T11:37:03.135Z,9.87
2017-08-17T11:39:30.088Z,11.50
2017-08-17T11:41:57.954Z,10.30
2017-08-17T11:44:25.943Z,11.80
2017-08-17T11:46:52.858Z,11.07
2017-08-17T11:49:19.930Z,11.50
2017-08-17T11:51:46.887Z,11.40
2017-08-17T11:54:13.810Z,11.57
2017-08-17T11:56:41.682Z,13.13
2017-08-17T11:59:08.604Z,12.30
2017-08-17T12:01:35.548Z,11.67
2017-08-17T12:04:02.479Z,12.97
2017-08-17T12:06:29.456Z,12.43
2017-08-17T12:08:56.378Z,12.23
2017-08-17T12:11:23.316Z,14.30
2017-08-17T12:13:51.169Z,12.23
2017-08-17T12:16:18.135Z,11.00
2017-08-17T12:18:45.880Z,11.53
2017-08-17T12:21:12.819Z,11.67
2017-08-17T12:23:39.758Z,12.00
2017-08-17T12:26:07.679Z,9.93
2017-08-17T12:28:34.599Z,11.83
2017-08-17T12:31:02.326Z,10.00
2017-08-17T12:33:29.265Z,9.97
2017-08-17T12:35:56.198Z,9.53
2017-08-17T12:38:24.127Z,10.53
2017-08-17T12:40:51.101Z,10.80
2017-08-17T12:43:18.027Z,9.73
2017-08-17T12:45:44.971Z,10.87
2017-08-17T12:48:12.233Z,9.13
2017-08-17T12:50:39.171Z,9.20
2017-08-17T12:53:06.115Z,9.80
2017-08-17T12:55:33.044Z,8.80
2017-08-17T12:58:00.216Z,9.13
2017-08-17T13:00:28.210Z,9.10
2017-08-17T13:02:55.160Z,9.90
2017-08-17T13:05:22.118Z,9.93
2017-08-17T13:07:49.098Z,9.73
2017-08-17T13:10:16.018Z,9.13
2017-08-17T13:12:43.729Z,10.53
2017-08-17T13:15:10.744Z,9.57
2017-08-17T13:17:39.383Z,10.23
2017-08-17T13:20:06.379Z,9.90
2017-08-17T13:22:33.342Z,9.23
2017-08-17T13:25:00.298Z,10.10
2017-08-17T13:27:27.263Z,9.83
2017-08-17T13:29:54.185Z,9.67
2017-08-17T13:32:21.116Z,11.67
2017-08-17T13:34:48.066Z,10.40
2017-08-17T13:37:14.984Z,9.53
2017-08-17T13:39:44.646Z,9.27
2017-08-17T13:42:11.571Z,9.20
2017-08-17T13:44:38.511Z,10.13
2017-08-17T13:47:05.440Z,9.87
2017-08-17T13:49:32.409Z,9.17
2017-08-17T13:51:59.331Z,9.23
2017-08-17T13:54:27.189Z,8.93
2017-08-17T13:56:54.134Z,7.80
2017-08-17T13:59:21.067Z,9.00
2017-08-17T14:01:48.808Z,8.47
2017-08-17T14:04:16.730Z,7.77
2017-08-17T14:06:43.705Z,8.10
2017-08-17T14:09:10.627Z,7.83
2017-08-17T14:11:37.564Z,8.60
2017-08-17T14:14:05.432Z,8.00
2017-08-17T14:16:32.393Z,7.90
2017-08-17T14:18:59.320Z,8.20
2017-08-17T14:21:26.230Z,7.37
2017-08-17T14:23:53.947Z,8.40
2017-08-17T14:26:21.334Z,8.80
2017-08-17T14:28:48.278Z,8.50
2017-08-17T14:31:15.200Z,8.50
2017-08-17T14:33:42.144Z,8.43
2017-08-17T14:36:09.061Z,8.83
2017-08-17T14:38:36.129Z,10.90
2017-08-17T14:41:03.050Z,9.60
2017-08-17T14:43:29.983Z,11.67
2017-08-17T14:45:56.914Z,14.03
2017-08-17T14:48:23.864Z,13.67
2017-08-17T14:50:50.783Z,17.27
2017-08-17T14:53:17.698Z,18.80
2017-08-17T14:55:44.638Z,20.00
2017-08-17T14:58:16.583Z,19.47
2017-08-17T15:00:43.503Z,19.70
2017-08-17T15:03:10.426Z,18.40
2017-08-17T15:05:38.135Z,19.47
2017-08-17T15:08:05.059Z,16.47
2017-08-17T15:10:32.935Z,18.03
2017-08-17T15:12:59.858Z,16.70
2017-08-17T15:15:26.798Z,13.73
2017-08-17T15:17:55.497Z,13.57
2017-08-17T15:20:22.438Z,16.53
2017-08-17T15:22:53.193Z,15.03
2017-08-17T15:25:22.122Z,14.00
2017-08-17T15:27:49.086Z,14.80
2017-08-17T15:30:16.770Z,12.60
2017-08-17T15:32:43.839Z,11.90
2017-08-17T15:35:10.771Z,12.00
2017-08-17T15:37:37.694Z,11.90
2017-08-17T15:40:06.428Z,12.97
2017-08-17T15:42:34.373Z,12.47
2017-08-17T15:45:01.330Z,12.73
2017-08-17T15:47:28.374Z,13.63
2017-08-17T15:49:55.383Z,12.30
2017-08-17T15:52:23.752Z,12.03
2017-08-17T15:54:50.682Z,14.37
2017-08-17T15:57:17.610Z,13.57
2017-08-17T15:59:44.571Z,14.63
2017-08-17T16:02:11.498Z,15.50
2017-08-17T16:04:38.443Z,12.90
2017-08-17T16:07:05.374Z,15.03
2017-08-17T16:09:32.298Z,14.07
2017-08-17T16:11:59.238Z,15.13
2017-08-17T16:14:26.162Z,15.40
2017-08-17T16:16:53.103Z,15.43
2017-08-17T16:19:20.017Z,14.30
2017-08-17T16:21:48.730Z,12.73
2017-08-17T16:24:15.655Z,12.33
2017-08-17T16:26:42.590Z,13.00
2017-08-17T16:29:10.287Z,12.53
2017-08-17T16:31:37.226Z,11.77
2017-08-17T16:34:04.138Z,10.83
2017-08-17T16:36:32.884Z,11.00
2017-08-17T16:39:00.827Z,11.40
2017-08-17T16:41:27.754Z,13.07
2017-08-17T16:43:54.820Z,11.37
2017-08-17T16:46:21.739Z,10.13
2017-08-17T16:48:49.448Z,10.77
2017-08-17T16:51:16.363Z,11.37
2017-08-17T16:53:43.366Z,10.47
2017-08-17T16:56:12.077Z,11.37
2017-08-17T16:58:40.072Z,12.20
2017-08-17T17:01:07.074Z,11.90
2017-08-17T17:03:34.969Z,12.73
2017-08-17T17:06:01.886Z,13.50
2017-08-17T17:08:30.605Z,11.50
2017-08-17T17:10:59.546Z,11.20
2017-08-17T17:13:26.489Z,12.20
2017-08-17T17:15:53.567Z,12.30
2017-08-17T17:18:22.165Z,12.30
2017-08-17T17:20:49.235Z,13.40
2017-08-17T17:23:16.156Z,13.73
2017-08-17T17:25:43.097Z,13.40
2017-08-17T17:28:10.059Z,13.33
2017-08-17T17:30:37.014Z,14.87
2017-08-17T17:33:05.151Z,15.10
2017-08-17T17:35:32.862Z,15.23
2017-08-17T17:37:59.787Z,16.20
2017-08-17T17:40:27.654Z,13.57
2017-08-17T17:42:54.566Z,14.40
2017-08-17T17:45:22.296Z,15.40
2017-08-17T17:47:49.218Z,15.80
2017-08-17T17:50:16.158Z,14.50
2017-08-17T17:52:44.093Z,15.93
2017-08-17T17:55:12.002Z,13.87
2017-08-17T17:57:38.928Z,15.93
2017-08-17T18:00:05.851Z,17.57
2017-08-17T18:02:32.891Z,14.63
2017-08-17T18:04:59.813Z,14.60
2017-08-17T18:07:26.761Z,15.67
2017-08-17T18:09:55.210Z,15.90
2017-08-17T18:12:22.172Z,17.67
2017-08-17T18:14:49.107Z,16.33
2017-08-17T18:17:16.058Z,17.93
2017-08-17T18:19:42.993Z,17.57
2017-08-17T18:22:09.929Z,17.53
2017-08-17T18:24:37.781Z,17.77
2017-08-17T18:27:04.766Z,19.43
2017-08-17T18:29:31.693Z,18.60
2017-08-17T18:31:58.633Z,18.73
2017-08-17T18:34:25.562Z,19.20
2017-08-17T18:36:52.490Z,19.73
2017-08-17T18:39:20.342Z,20.50
2017-08-17T18:41:48.205Z,19.93
2017-08-17T18:44:16.605Z,20.10
2017-08-17T18:46:45.900Z,20.23
2017-08-17T18:49:14.287Z,20.17
2017-08-17T18:51:41.208Z,19.90
2017-08-17T18:54:38.577Z,21.33
2017-08-17T18:57:05.500Z,20.33
2017-08-17T18:59:33.201Z,20.70
2017-08-17T19:02:00.118Z,20.20
2017-08-17T19:04:27.050Z,19.80
2017-08-17T19:06:54.734Z,20.97
2017-08-17T19:09:21.671Z,20.07
2017-08-17T19:11:49.546Z,20.30
2017-08-17T19:14:17.398Z,20.03
2017-08-17T19:16:44.314Z,21.37
2017-08-17T19:19:11.271Z,20.83
2017-08-17T19:21:38.201Z,19.13
2017-08-17T19:24:05.141Z,19.90
2017-08-17T19:26:32.078Z,18.73
2017-08-17T19:28:59.001Z,20.47
2017-08-17T19:31:25.942Z,19.60
2017-08-17T19:33:52.859Z,20.73
2017-08-17T19:36:19.809Z,22.40
2017-08-17T19:38:46.722Z,21.20
2017-08-17T19:41:13.666Z,21.70
2017-08-17T19:43:41.346Z,22.03
2017-08-17T19:46:10.974Z,19.40
2017-08-17T19:48:37.894Z,21.80
2017-08-17T19:51:05.603Z,21.63
2017-08-17T19:53:33.529Z,22.80
2017-08-17T19:56:00.481Z,23.87
2017-08-17T19:58:27.417Z,23.73
2017-08-17T20:00:54.351Z,22.17
2017-08-17T20:03:22.038Z,23.10
2017-08-17T20:05:49.918Z,24.30
2017-08-17T20:08:16.845Z,23.03
2017-08-17T20:10:44.737Z,22.80
2017-08-17T20:13:11.649Z,21.70
2017-08-17T20:15:39.550Z,22.67
2017-08-17T20:18:06.473Z,21.53
2017-08-17T20:20:33.386Z,22.73
2017-08-17T20:23:01.094Z,22.77
2017-08-17T20:25:28.013Z,22.47
2017-08-17T20:27:55.480Z,23.20
2017-08-17T20:30:22.397Z,24.20
2017-08-17T20:32:49.341Z,24.10
2017-08-17T20:35:18.046Z,25.13
2017-08-17T20:37:44.986Z,23.77
2017-08-17T20:40:12.668Z,23.03
2017-08-17T20:42:39.615Z,24.23
2017-08-17T20:45:07.490Z,25.40
2017-08-17T20:47:34.427Z,25.00
2017-08-17T20:50:01.353Z,25.00
2017-08-17T20:52:28.294Z,24.03
2017-08-17T20:54:55.216Z,27.20
2017-08-17T20:57:22.170Z,25.23
2017-08-17T20:59:49.101Z,26.33
2017-08-17T21:02:16.829Z,26.17
2017-08-17T21:04:43.758Z,22.87
2017-08-17T21:07:10.699Z,23.70
2017-08-17T21:09:37.637Z,25.80
2017-08-17T21:12:04.554Z,25.60
2017-08-17T21:14:32.277Z,25.73
2017-08-17T21:16:59.210Z,24.00
2017-08-17T21:19:26.166Z,25.80
2017-08-17T21:21:53.102Z,23.83
2017-08-17T21:24:20.032Z,26.30
2017-08-17T21:26:46.957Z,23.23
2017-08-17T21:29:13.889Z,23.57
2017-08-17T21:31:41.570Z,24.00
2017-08-17T21:34:08.523Z,24.20
2017-08-17T21:36:35.446Z,24.87
2017-08-17T21:39:02.382Z,24.73
2017-08-17T21:41:30.066Z,25.37
2017-08-17T21:43:57.206Z,26.40
2017-08-17T21:46:24.125Z,25.47
2017-08-17T21:48:52.844Z,25.90
2017-08-17T21:51:19.773Z,23.80
2017-08-17T21:53:46.702Z,25.37
2017-08-17T21:56:14.389Z,25.80
2017-08-17T21:58:41.325Z,25.67
2017-08-17T22:01:09.014Z,27.40
2017-08-17T22:03:35.953Z,23.70
2017-08-17T22:06:03.774Z,25.10
2017-08-17T22:08:31.498Z,26.37
2017-08-17T22:10:58.418Z,25.03
2017-08-17T22:13:25.356Z,24.97
2017-08-17T22:15:52.273Z,24.67
2017-08-17T22:18:20.885Z,27.80
2017-08-17T22:20:47.815Z,27.60
2017-08-17T22:23:14.750Z,27.10
2017-08-17T22:25:41.681Z,28.93
2017-08-17T22:28:08.633Z,28.30
2017-08-17T22:30:36.319Z,31.33
2017-08-17T22:33:03.662Z,31.70
2017-08-17T22:35:30.577Z,29.53
2017-08-17T22:37:58.265Z,28.80
2017-08-17T22:40:26.078Z,30.47
2017-08-17T22:45:38.194Z,31.03
2017-08-17T22:48:05.137Z,30.87
2017-08-17T22:50:32.104Z,29.57
2017-08-17T22:52:59.048Z,31.20
2017-08-17T22:55:26.002Z,33.00
2017-08-17T22:57:53.717Z,32.47
2017-08-17T23:00:20.756Z,33.13
2017-08-17T23:02:47.725Z,33.77
2017-08-17T23:05:14.692Z,32.73
2017-08-17T23:07:41.649Z,35.77
2017-08-17T23:10:09.380Z,35.20
2017-08-17T23:12:36.330Z,34.60
2017-08-17T23:15:03.297Z,34.83
2017-08-17T23:17:31.010Z,34.63
2017-08-17T23:19:57.945Z,33.30
2017-08-17T23:22:24.897Z,34.53
2017-08-17T23:24:51.837Z,34.80
2017-08-17T23:27:18.810Z,35.27
2017-08-17T23:29:45.752Z,34.63
2017-08-17T23:32:13.718Z,35.70
2017-08-17T23:34:41.661Z,37.70
2017-08-17T23:37:08.631Z,33.60
2017-08-17T23:39:35.638Z,34.67
2017-08-17T23:42:02.597Z,36.90
2017-08-17T23:44:29.541Z,35.47
2017-08-17T23:46:56.509Z,35.70
2017-08-17T23:49:23.454Z,36.70
2017-08-17T23:51:50.417Z,35.97
2017-08-17T23:54:17.348Z,37.10
2017-08-17T23:56:44.372Z,35.07
2017-08-17T23:59:11.304Z,35.00
